createdAt,value
2019-05-05T00:00:44.525Z,45.58
2019-05-05T00:03:17.851Z,44.42
2019-05-05T00:05:49.027Z,43.82
2019-05-05T00:08:18.349Z,43.62
2019-05-05T00:10:57.004Z,42.65
2019-05-05T00:13:36.731Z,42.39
2019-05-05T00:16:16.607Z,41.25
2019-05-05T00:18:45.879Z,40.54
2019-05-05T00:21:15.272Z,40.88
2019-05-05T00:23:45.169Z,41.25
2019-05-05T00:26:15.039Z,41.43
2019-05-05T00:28:44.889Z,41.35
2019-05-05T00:31:15.079Z,41.11
2019-05-05T00:33:44.964Z,41.34
2019-05-05T00:36:14.661Z,41.76
2019-05-05T00:38:44.557Z,41.55
2019-05-05T00:41:14.839Z,41.28
2019-05-05T00:43:45.123Z,40.99
2019-05-05T00:46:16.602Z,40.14
2019-05-05T00:48:47.358Z,40.07
2019-05-05T00:51:16.644Z,40.64
2019-05-05T00:53:46.026Z,40.33
2019-05-05T00:56:15.416Z,40.39
2019-05-05T00:58:46.397Z,40.99
2019-05-05T01:01:20.077Z,40.58
2019-05-05T01:03:49.399Z,40.43
2019-05-05T01:06:20.307Z,40.43
2019-05-05T01:08:49.652Z,40.48
2019-05-05T01:11:19.309Z,40.29
2019-05-05T01:13:48.629Z,40.45
2019-05-05T01:16:18.012Z,40.31
2019-05-05T01:18:47.372Z,40.47
2019-05-05T01:21:16.628Z,40.20
2019-05-05T01:23:45.957Z,39.79
2019-05-05T01:26:15.403Z,39.76
2019-05-05T01:28:44.848Z,39.77
2019-05-05T01:31:15.789Z,40.52
2019-05-05T01:33:54.191Z,41.08
2019-05-05T01:36:24.278Z,41.84
2019-05-05T01:38:57.925Z,41.06
2019-05-05T01:41:29.261Z,40.65
2019-05-05T01:43:58.670Z,40.67
2019-05-05T01:46:28.093Z,41.98
2019-05-05T01:48:57.528Z,42.48
2019-05-05T01:51:26.913Z,42.86
2019-05-05T01:53:56.261Z,42.48
2019-05-05T01:56:25.615Z,42.73
2019-05-05T01:58:55.652Z,42.54
2019-05-05T02:01:25.012Z,42.88
2019-05-05T02:03:54.999Z,42.78
2019-05-05T02:06:24.880Z,43.11
2019-05-05T02:08:54.986Z,43.30
2019-05-05T02:11:24.778Z,43.75
2019-05-05T02:13:54.678Z,43.60
2019-05-05T02:16:25.309Z,43.34
2019-05-05T02:18:54.942Z,43.64
2019-05-05T02:21:24.756Z,43.31
2019-05-05T02:23:54.904Z,43.15
2019-05-05T02:26:24.663Z,43.77
2019-05-05T02:28:55.691Z,42.85
2019-05-05T02:31:36.171Z,43.82
2019-05-05T02:34:05.663Z,44.01
2019-05-05T02:36:35.709Z,44.43
2019-05-05T02:39:07.557Z,43.81
2019-05-05T02:41:37.957Z,43.54
2019-05-05T02:44:07.327Z,43.24
2019-05-05T02:46:38.258Z,43.31
2019-05-05T02:49:07.569Z,43.45
2019-05-05T02:51:36.810Z,43.42
2019-05-05T02:54:06.251Z,43.17
2019-05-05T02:56:49.592Z,42.64
2019-05-05T02:59:20.809Z,42.86
2019-05-05T03:01:57.712Z,42.92
2019-05-05T03:04:27.161Z,42.23
2019-05-05T03:06:56.477Z,41.67
2019-05-05T03:09:25.732Z,41.14
2019-05-05T03:11:55.397Z,41.24
2019-05-05T03:14:24.791Z,40.86
2019-05-05T03:16:54.307Z,41.12
2019-05-05T03:19:24.435Z,41.32
2019-05-05T03:21:54.567Z,41.46
2019-05-05T03:24:23.940Z,41.91
2019-05-05T03:26:53.771Z,43.04
2019-05-05T03:29:24.334Z,43.05
2019-05-05T03:31:56.344Z,42.50
2019-05-05T03:34:26.659Z,42.29
2019-05-05T03:36:55.915Z,41.90
2019-05-05T03:39:31.092Z,40.91
2019-05-05T03:42:03.610Z,40.85
2019-05-05T03:44:34.663Z,40.71
2019-05-05T03:47:04.065Z,40.94
2019-05-05T03:49:33.850Z,41.07
2019-05-05T03:52:04.830Z,42.18
2019-05-05T03:54:34.398Z,41.52
2019-05-05T03:57:10.132Z,41.65
2019-05-05T03:59:41.118Z,40.11
2019-05-05T04:02:15.182Z,39.68
2019-05-05T04:04:46.078Z,39.84
2019-05-05T04:07:15.462Z,39.33
2019-05-05T04:09:46.472Z,39.27
2019-05-05T04:12:15.785Z,39.00
2019-05-05T04:14:45.473Z,39.48
2019-05-05T04:17:16.778Z,39.88
2019-05-05T04:19:54.256Z,40.78
2019-05-05T04:22:23.873Z,40.48
2019-05-05T04:24:54.129Z,40.86
2019-05-05T04:27:23.975Z,40.54
2019-05-05T04:29:54.509Z,40.36
2019-05-05T04:32:24.504Z,39.85
2019-05-05T04:34:54.412Z,38.83
2019-05-05T04:37:24.072Z,39.81
2019-05-05T04:39:53.801Z,39.53
2019-05-05T04:42:24.509Z,40.56
2019-05-05T04:44:53.991Z,40.23
2019-05-05T04:47:25.125Z,40.45
2019-05-05T04:50:14.512Z,40.52
2019-05-05T04:52:43.599Z,40.41
2019-05-05T04:55:13.832Z,40.04
2019-05-05T04:57:43.793Z,40.22
2019-05-05T05:00:13.773Z,40.91
2019-05-05T05:02:54.551Z,40.57
2019-05-05T05:05:27.877Z,41.58
2019-05-05T05:07:58.092Z,41.08
2019-05-05T05:10:27.632Z,41.51
2019-05-05T05:12:56.802Z,40.72
2019-05-05T05:15:25.964Z,40.50
2019-05-05T05:18:04.078Z,40.77
2019-05-05T05:20:34.066Z,40.15
2019-05-05T05:23:03.756Z,39.90
2019-05-05T05:25:34.711Z,39.82
2019-05-05T05:28:04.393Z,41.52
2019-05-05T05:30:34.680Z,41.82
2019-05-05T05:33:04.942Z,42.29
2019-05-05T05:35:34.119Z,41.54
2019-05-05T05:38:04.698Z,42.50
2019-05-05T05:40:41.482Z,43.03
2019-05-05T05:43:13.924Z,42.81
2019-05-05T05:45:56.691Z,41.94
2019-05-05T05:48:36.124Z,42.22
2019-05-05T05:51:14.648Z,41.25
2019-05-05T05:53:44.323Z,40.47
2019-05-05T05:56:13.613Z,41.28
2019-05-05T05:58:44.221Z,42.45
2019-05-05T06:01:14.689Z,42.37
2019-05-05T06:03:44.418Z,41.95
2019-05-05T06:06:15.026Z,41.88
2019-05-05T06:08:44.248Z,40.11
2019-05-05T06:11:13.745Z,41.53
2019-05-05T06:13:44.444Z,40.62
2019-05-05T06:16:14.557Z,41.47
2019-05-05T06:18:43.906Z,42.43
2019-05-05T06:21:13.748Z,41.75
2019-05-05T06:23:43.843Z,41.60
2019-05-05T06:26:15.198Z,41.69
2019-05-05T06:28:44.737Z,41.90
2019-05-05T06:31:14.748Z,42.00
2019-05-05T06:33:43.997Z,42.38
2019-05-05T06:36:14.187Z,43.76
2019-05-05T06:38:43.817Z,44.25
2019-05-05T06:41:14.841Z,43.95
2019-05-05T06:43:45.650Z,44.19
2019-05-05T06:46:16.503Z,44.26
2019-05-05T06:48:45.687Z,43.76
2019-05-05T06:51:14.850Z,43.38
2019-05-05T06:53:44.329Z,43.39
2019-05-05T06:56:14.578Z,43.89
2019-05-05T06:58:44.792Z,42.92
2019-05-05T07:01:14.469Z,43.01
2019-05-05T07:03:43.931Z,43.18
2019-05-05T07:06:14.612Z,43.18
2019-05-05T07:08:44.116Z,43.48
2019-05-05T07:11:14.507Z,43.03
2019-05-05T07:13:44.415Z,42.39
2019-05-05T07:16:15.012Z,42.20
2019-05-05T07:18:44.775Z,42.01
2019-05-05T07:21:14.373Z,41.81
2019-05-05T07:23:44.576Z,40.88
2019-05-05T07:26:14.514Z,41.36
2019-05-05T07:28:44.950Z,41.78
2019-05-05T07:31:14.475Z,43.61
2019-05-05T07:33:43.954Z,43.54
2019-05-05T07:36:17.260Z,43.47
2019-05-05T07:38:48.315Z,42.43
2019-05-05T07:41:17.517Z,42.08
2019-05-05T07:43:46.783Z,42.26
2019-05-05T07:46:16.118Z,43.21
2019-05-05T07:48:45.299Z,43.28
2019-05-05T07:51:14.559Z,43.08
2019-05-05T07:53:44.419Z,42.18
2019-05-05T07:56:14.517Z,41.57
2019-05-05T07:58:44.068Z,42.19
2019-05-05T08:01:14.155Z,42.06
2019-05-05T08:03:44.532Z,40.56
2019-05-05T08:06:14.629Z,42.54
2019-05-05T08:08:44.455Z,41.31
2019-05-05T08:11:14.796Z,40.26
2019-05-05T08:13:45.812Z,39.77
2019-05-05T08:16:16.745Z,39.17
2019-05-05T08:19:03.969Z,40.09
2019-05-05T08:21:34.649Z,39.95
2019-05-05T08:24:08.740Z,38.25
2019-05-05T08:26:48.612Z,38.16
2019-05-05T08:29:37.518Z,37.29
2019-05-05T08:32:08.620Z,37.15
2019-05-05T08:34:38.007Z,36.01
2019-05-05T08:37:07.289Z,36.26
2019-05-05T08:39:36.542Z,36.67
2019-05-05T08:42:05.937Z,37.41
2019-05-05T08:44:35.315Z,35.71
2019-05-05T08:47:04.778Z,35.59
2019-05-05T08:49:34.772Z,34.94
2019-05-05T08:52:04.300Z,33.60
2019-05-05T08:54:34.395Z,33.35
2019-05-05T08:57:04.340Z,32.22
2019-05-05T08:59:33.877Z,31.70
2019-05-05T09:02:04.511Z,32.39
2019-05-05T09:04:34.110Z,31.17
2019-05-05T09:07:05.011Z,29.36
2019-05-05T09:09:34.682Z,29.40
2019-05-05T09:12:04.530Z,31.62
2019-05-05T09:14:34.662Z,30.06
2019-05-05T09:17:04.565Z,29.24
2019-05-05T09:19:34.523Z,30.43
2019-05-05T09:22:05.661Z,31.45
2019-05-05T09:24:53.648Z,30.76
2019-05-05T09:27:28.416Z,31.22
2019-05-05T09:29:57.941Z,31.00
2019-05-05T09:32:27.636Z,29.24
2019-05-05T09:34:56.904Z,30.56
2019-05-05T09:37:26.455Z,31.16
2019-05-05T09:39:56.279Z,32.99
2019-05-05T09:42:25.623Z,33.33
2019-05-05T09:44:55.043Z,32.67
2019-05-05T09:47:24.382Z,33.29
2019-05-05T09:49:54.967Z,33.98
2019-05-05T09:52:24.561Z,31.81
2019-05-05T09:54:54.393Z,32.21
2019-05-05T09:57:23.905Z,32.26
2019-05-05T09:59:57.442Z,32.06
2019-05-05T10:02:26.903Z,32.49
2019-05-05T10:04:56.230Z,33.05
2019-05-05T10:07:25.574Z,32.58
2019-05-05T10:09:55.805Z,33.39
2019-05-05T10:12:25.226Z,32.86
2019-05-05T10:14:54.700Z,32.67
2019-05-05T10:17:24.448Z,33.66
2019-05-05T10:19:54.701Z,33.28
2019-05-05T10:22:24.121Z,34.38
2019-05-05T10:24:57.567Z,32.46
2019-05-05T10:27:26.840Z,33.27
2019-05-05T10:29:56.143Z,34.07
2019-05-05T10:32:38.780Z,33.70
2019-05-05T10:35:07.566Z,34.43
2019-05-05T10:37:41.215Z,33.92
2019-05-05T10:40:12.154Z,33.69
2019-05-05T10:42:50.320Z,34.10
2019-05-05T10:45:21.144Z,34.43
2019-05-05T10:47:51.401Z,35.03
2019-05-05T10:50:20.714Z,34.50
2019-05-05T10:52:50.049Z,34.04
2019-05-05T10:55:20.945Z,34.35
2019-05-05T10:57:50.314Z,32.62
2019-05-05T11:00:44.350Z,33.50
2019-05-05T11:03:15.013Z,32.84
2019-05-05T11:05:45.093Z,32.45
2019-05-05T11:08:15.125Z,32.53
2019-05-05T11:10:45.157Z,32.94
2019-05-05T11:13:14.579Z,32.38
2019-05-05T11:15:44.497Z,32.87
2019-05-05T11:18:14.936Z,32.64
2019-05-05T11:20:45.113Z,33.60
2019-05-05T11:23:15.220Z,33.65
2019-05-05T11:25:44.888Z,32.78
2019-05-05T11:28:14.290Z,32.97
2019-05-05T11:30:45.820Z,33.76
2019-05-05T11:33:16.789Z,33.98
2019-05-05T11:35:53.977Z,34.00
2019-05-05T11:38:24.723Z,33.75
2019-05-05T11:40:54.769Z,32.74
2019-05-05T11:43:24.800Z,33.58
2019-05-05T11:45:54.616Z,34.06
2019-05-05T11:48:24.179Z,33.02
2019-05-05T11:50:54.171Z,34.72
2019-05-05T11:53:25.098Z,34.46
2019-05-05T11:55:55.206Z,34.43
2019-05-05T11:58:25.006Z,34.38
2019-05-05T12:00:54.774Z,34.84
2019-05-05T12:03:24.179Z,34.32
2019-05-05T12:05:53.479Z,35.17
2019-05-05T12:08:23.875Z,34.21
2019-05-05T12:11:04.603Z,34.80
2019-05-05T12:13:34.030Z,34.41
2019-05-05T12:16:05.179Z,33.42
2019-05-05T12:18:34.616Z,33.24
2019-05-05T12:21:05.156Z,33.98
2019-05-05T12:23:34.641Z,33.76
2019-05-05T12:26:13.651Z,33.72
2019-05-05T12:28:47.309Z,34.40
2019-05-05T12:31:24.734Z,33.69
2019-05-05T12:33:54.952Z,33.10
2019-05-05T12:36:24.460Z,33.87
2019-05-05T12:38:54.562Z,33.73
2019-05-05T12:41:24.226Z,33.24
2019-05-05T12:43:54.863Z,32.10
2019-05-05T12:46:33.682Z,33.01
2019-05-05T12:49:04.909Z,33.03
2019-05-05T12:51:34.414Z,32.83
2019-05-05T12:54:04.628Z,32.22
2019-05-05T12:56:34.250Z,30.97
2019-05-05T12:59:05.342Z,32.17
2019-05-05T13:01:44.181Z,32.57
2019-05-05T13:04:14.112Z,33.59
2019-05-05T13:06:45.060Z,32.67
2019-05-05T13:09:16.134Z,32.57
2019-05-05T13:11:45.499Z,32.25
2019-05-05T13:14:14.834Z,32.77
2019-05-05T13:16:52.496Z,31.84
2019-05-05T13:19:24.229Z,31.76
2019-05-05T13:22:11.442Z,32.42
2019-05-05T13:24:53.992Z,30.53
2019-05-05T13:27:25.035Z,31.63
2019-05-05T13:29:54.542Z,30.98
2019-05-05T13:32:24.751Z,30.32
2019-05-05T13:34:54.612Z,31.58
2019-05-05T13:37:24.524Z,31.57
2019-05-05T13:39:54.035Z,32.10
2019-05-05T13:42:24.335Z,31.15
2019-05-05T13:44:58.334Z,31.38
2019-05-05T13:47:27.660Z,31.22
2019-05-05T13:49:58.604Z,30.46
2019-05-05T13:52:27.782Z,29.67
2019-05-05T13:54:57.112Z,30.07
2019-05-05T13:57:26.601Z,29.95
2019-05-05T13:59:55.934Z,29.76
2019-05-05T14:02:25.212Z,31.00
2019-05-05T14:04:54.526Z,30.48
2019-05-05T14:07:24.134Z,30.44
2019-05-05T14:09:54.944Z,31.30
2019-05-05T14:12:24.212Z,32.03
2019-05-05T14:14:54.588Z,31.24
2019-05-05T14:17:23.880Z,31.07
2019-05-05T14:20:02.507Z,31.24
2019-05-05T14:22:24.365Z,30.66
2019-05-05T14:25:01.229Z,30.68
2019-05-05T14:27:30.466Z,30.70
2019-05-05T14:30:10.262Z,30.18
2019-05-05T14:32:41.081Z,30.52
2019-05-05T14:35:20.777Z,32.28
2019-05-05T14:37:56.249Z,31.10
2019-05-05T14:40:25.698Z,31.32
2019-05-05T14:42:54.851Z,31.02
2019-05-05T14:45:24.114Z,32.37
2019-05-05T14:47:53.604Z,31.67
2019-05-05T14:50:24.242Z,30.92
2019-05-05T14:52:53.658Z,31.02
2019-05-05T14:55:22.874Z,31.54
2019-05-05T14:57:53.466Z,30.37
2019-05-05T15:00:24.415Z,30.18
2019-05-05T15:02:54.445Z,30.84
2019-05-05T15:05:37.711Z,30.26
2019-05-05T15:08:08.607Z,31.17
2019-05-05T15:10:55.660Z,30.49
2019-05-05T15:13:25.183Z,29.66
2019-05-05T15:15:54.432Z,29.45
2019-05-05T15:18:24.256Z,30.71
2019-05-05T15:20:54.644Z,32.00
2019-05-05T15:23:24.179Z,31.58
2019-05-05T15:25:54.013Z,31.68
2019-05-05T15:28:24.560Z,31.20
2019-05-05T15:30:54.443Z,32.08
2019-05-05T15:33:24.402Z,31.69
2019-05-05T15:35:54.277Z,32.26
2019-05-05T15:38:24.433Z,31.24
2019-05-05T15:40:54.700Z,32.06
2019-05-05T15:43:24.551Z,32.27
2019-05-05T15:45:54.136Z,32.61
2019-05-05T15:48:23.486Z,32.97
2019-05-05T15:50:54.654Z,32.69
2019-05-05T15:53:24.023Z,34.02
2019-05-05T15:55:54.030Z,33.12
2019-05-05T15:58:23.669Z,32.59
2019-05-05T16:00:53.823Z,32.03
2019-05-05T16:03:24.086Z,31.40
2019-05-05T16:05:54.336Z,32.16
2019-05-05T16:08:23.735Z,32.08
2019-05-05T16:10:54.647Z,31.63
2019-05-05T16:13:23.931Z,30.96
2019-05-05T16:16:14.560Z,30.37
2019-05-05T16:18:48.666Z,30.19
2019-05-05T16:21:23.629Z,29.83
2019-05-05T16:24:07.743Z,30.59
2019-05-05T16:26:37.277Z,29.86
2019-05-05T16:29:06.513Z,30.20
2019-05-05T16:31:35.932Z,30.71
2019-05-05T16:34:05.144Z,30.88
2019-05-05T16:36:34.404Z,31.66
2019-05-05T16:39:03.826Z,30.52
2019-05-05T16:41:34.065Z,31.89
2019-05-05T16:44:03.937Z,31.69
2019-05-05T16:46:34.136Z,32.42
2019-05-05T16:49:03.646Z,32.08
2019-05-05T16:51:40.046Z,33.07
2019-05-05T16:54:16.759Z,32.74
2019-05-05T16:56:46.199Z,32.70
2019-05-05T16:59:16.554Z,32.50
2019-05-05T17:01:46.041Z,32.50
2019-05-05T17:04:15.244Z,32.31
2019-05-05T17:06:45.843Z,31.82
2019-05-05T17:09:15.137Z,31.95
2019-05-05T17:11:45.959Z,31.00
2019-05-05T17:14:23.438Z,31.12
2019-05-05T17:16:54.560Z,30.77
2019-05-05T17:19:25.343Z,30.48
2019-05-05T17:22:08.206Z,29.71
2019-05-05T17:24:38.934Z,29.54
2019-05-05T17:27:08.148Z,30.44
2019-05-05T17:29:37.352Z,30.26
2019-05-05T17:32:06.646Z,30.03
2019-05-05T17:34:35.834Z,30.51
2019-05-05T17:37:05.018Z,30.59
2019-05-05T17:39:35.869Z,29.52
2019-05-05T17:42:15.728Z,29.43
2019-05-05T17:45:03.720Z,30.20
2019-05-05T17:47:40.634Z,29.87
2019-05-05T17:50:17.430Z,29.68
2019-05-05T17:52:48.245Z,29.48
2019-05-05T17:55:28.413Z,30.09
2019-05-05T17:58:02.620Z,30.36
2019-05-05T18:00:34.313Z,30.38
2019-05-05T18:03:04.895Z,29.96
2019-05-05T18:05:54.510Z,29.69
2019-05-05T18:08:37.752Z,29.64
2019-05-05T18:11:13.916Z,29.62
2019-05-05T18:13:44.879Z,29.95
2019-05-05T18:16:15.953Z,29.61
2019-05-05T18:18:45.129Z,29.58
2019-05-05T18:21:14.529Z,29.40
2019-05-05T18:23:44.041Z,29.52
2019-05-05T18:26:13.765Z,29.33
2019-05-05T18:28:44.768Z,29.31
2019-05-05T18:31:14.734Z,29.46
2019-05-05T18:33:43.919Z,29.23
2019-05-05T18:36:14.196Z,29.22
2019-05-05T18:38:44.431Z,29.25
2019-05-05T18:41:20.366Z,29.09
2019-05-05T18:43:50.655Z,29.47
2019-05-05T18:46:20.083Z,29.69
2019-05-05T18:48:49.489Z,29.62
2019-05-05T18:51:18.662Z,29.70
2019-05-05T18:53:47.910Z,29.66
2019-05-05T18:56:17.181Z,29.70
2019-05-05T18:58:46.496Z,29.94
2019-05-05T19:01:20.290Z,30.08
2019-05-05T19:04:04.193Z,30.28
2019-05-05T19:06:51.911Z,30.42
2019-05-05T19:09:24.738Z,30.76
2019-05-05T19:11:54.547Z,31.06
2019-05-05T19:14:24.318Z,30.49
2019-05-05T19:16:55.679Z,31.16
2019-05-05T19:19:26.924Z,31.35
2019-05-05T19:22:06.401Z,31.62
2019-05-05T19:24:35.677Z,31.79
2019-05-05T19:27:04.927Z,32.16
2019-05-05T19:29:34.393Z,32.31
2019-05-05T19:32:04.183Z,32.43
2019-05-05T19:34:35.292Z,32.57
2019-05-05T19:37:04.342Z,32.47
2019-05-05T19:39:34.411Z,32.83
2019-05-05T19:42:04.867Z,32.95
2019-05-05T19:44:34.244Z,32.95
2019-05-05T19:47:07.542Z,32.93
2019-05-05T19:49:39.158Z,32.97
2019-05-05T19:52:07.724Z,33.09
2019-05-05T19:54:37.001Z,33.05
2019-05-05T19:57:06.168Z,32.77
2019-05-05T19:59:35.868Z,32.75
2019-05-05T20:02:06.407Z,32.42
2019-05-05T20:04:35.583Z,32.34
2019-05-05T20:07:04.862Z,32.31
2019-05-05T20:09:34.201Z,32.20
2019-05-05T20:12:04.008Z,32.23
2019-05-05T20:14:34.206Z,31.95
2019-05-05T20:17:05.250Z,31.97
2019-05-05T20:19:36.133Z,31.10
2019-05-05T20:22:05.312Z,31.04
2019-05-05T20:24:34.582Z,31.88
2019-05-05T20:27:04.581Z,31.64
2019-05-05T20:29:37.190Z,31.33
2019-05-05T20:32:05.022Z,30.85
2019-05-05T20:34:35.841Z,31.02
2019-05-05T20:37:14.166Z,30.99
2019-05-05T20:39:44.174Z,31.05
2019-05-05T20:42:14.875Z,31.23
2019-05-05T20:44:44.278Z,31.04
2019-05-05T20:47:13.493Z,31.24
2019-05-05T20:49:44.394Z,31.45
2019-05-05T20:52:14.215Z,31.47
2019-05-05T20:54:44.102Z,31.44
2019-05-05T20:57:13.661Z,30.90
2019-05-05T20:59:44.559Z,30.82
2019-05-05T21:02:13.985Z,30.39
2019-05-05T21:04:44.585Z,30.59
2019-05-05T21:07:14.111Z,31.15
2019-05-05T21:09:43.389Z,30.86
2019-05-05T21:12:13.850Z,31.15
2019-05-05T21:14:44.686Z,31.01
2019-05-05T21:17:14.434Z,31.20
2019-05-05T21:19:43.619Z,31.35
2019-05-05T21:22:30.665Z,31.20
2019-05-05T21:24:59.921Z,31.39
2019-05-05T21:27:29.225Z,31.53
2019-05-05T21:29:58.801Z,31.32
2019-05-05T21:32:28.052Z,31.96
2019-05-05T21:34:57.302Z,31.43
2019-05-05T21:37:26.562Z,31.62
2019-05-05T21:39:55.825Z,30.90
2019-05-05T21:42:25.407Z,31.27
2019-05-05T21:44:54.749Z,31.27
2019-05-05T21:47:24.177Z,31.14
2019-05-05T21:49:54.156Z,31.50
2019-05-05T21:52:41.735Z,31.41
2019-05-05T21:55:18.307Z,31.45
2019-05-05T21:58:00.940Z,31.68
2019-05-05T22:00:49.395Z,30.98
2019-05-05T22:03:20.902Z,31.19
2019-05-05T22:05:50.145Z,31.96
2019-05-05T22:08:19.450Z,31.65
2019-05-05T22:10:48.605Z,31.55
2019-05-05T22:13:17.855Z,31.60
2019-05-05T22:15:47.110Z,31.73
2019-05-05T22:18:16.496Z,31.36
2019-05-05T22:20:47.943Z,31.18
2019-05-05T22:23:18.524Z,31.70
2019-05-05T22:25:47.824Z,31.74
2019-05-05T22:28:17.205Z,31.75
2019-05-05T22:30:46.515Z,31.95
2019-05-05T22:33:15.967Z,31.56
2019-05-05T22:35:45.294Z,31.17
2019-05-05T22:38:14.625Z,31.03
2019-05-05T22:40:44.167Z,31.10
2019-05-05T22:43:14.729Z,30.98
2019-05-05T22:45:45.028Z,31.34
2019-05-05T22:48:14.617Z,31.27
2019-05-05T22:50:44.060Z,31.31
2019-05-05T22:53:14.063Z,31.96
2019-05-05T22:55:46.920Z,31.94
2019-05-05T22:58:16.183Z,32.03
2019-05-05T23:00:45.416Z,31.79
2019-05-05T23:03:19.400Z,31.80
2019-05-05T23:05:50.273Z,31.83
2019-05-05T23:08:19.455Z,31.84
2019-05-05T23:10:48.685Z,31.33
2019-05-05T23:13:18.145Z,31.44
2019-05-05T23:15:51.828Z,31.30
2019-05-05T23:18:25.778Z,30.67
2019-05-05T23:20:59.312Z,31.17
2019-05-05T23:23:41.967Z,30.87
2019-05-05T23:26:14.956Z,30.90
2019-05-05T23:28:44.397Z,30.55
2019-05-05T23:31:15.955Z,30.87
2019-05-05T23:33:44.822Z,31.02
2019-05-05T23:36:14.804Z,30.79
2019-05-05T23:38:44.935Z,30.91
2019-05-05T23:41:14.688Z,30.69
2019-05-05T23:43:45.111Z,30.26
2019-05-05T23:46:14.518Z,30.65
2019-05-05T23:48:44.219Z,31.01
2019-05-05T23:51:13.954Z,30.95
2019-05-05T23:53:44.437Z,30.97
2019-05-05T23:56:13.844Z,30.99
2019-05-05T23:58:44.144Z,31.16
